createdAt,value
2019-04-22T00:00:00.549Z,13.50
2019-04-22T00:02:34.972Z,13.50
2019-04-22T00:05:12.226Z,13.50
2019-04-22T00:08:00.350Z,13.50
2019-04-22T00:10:33.173Z,13.50
2019-04-22T00:13:02.926Z,13.50
2019-04-22T00:15:29.182Z,13.40
2019-04-22T00:18:07.490Z,13.40
2019-04-22T00:20:35.505Z,13.40
2019-04-22T00:23:07.424Z,13.40
2019-04-22T00:25:42.089Z,13.40
2019-04-22T00:28:08.583Z,13.40
2019-04-22T00:30:34.179Z,13.30
2019-04-22T00:33:24.502Z,13.30
2019-04-22T00:35:53.405Z,13.20
2019-04-22T00:38:25.090Z,13.20
2019-04-22T00:40:55.911Z,13.10
2019-04-22T00:43:24.662Z,13.10
2019-04-22T00:45:55.770Z,13.00
2019-04-22T00:48:27.785Z,13.00
2019-04-22T00:51:20.728Z,12.90
2019-04-22T00:53:30.108Z,12.90
2019-04-22T00:56:07.419Z,12.90
2019-04-22T00:58:37.864Z,12.90
2019-04-22T01:01:08.037Z,12.90
2019-04-22T01:03:46.237Z,12.90
2019-04-22T01:06:12.008Z,12.80
2019-04-22T01:11:24.762Z,12.70
2019-04-22T01:13:50.207Z,12.70
2019-04-22T01:16:22.638Z,12.60
2019-04-22T01:18:49.120Z,12.50
2019-04-22T01:21:28.840Z,12.50
2019-04-22T01:23:52.124Z,12.40
2019-04-22T01:26:25.449Z,12.40
2019-04-22T01:28:53.459Z,12.30
2019-04-22T01:31:17.912Z,12.20
2019-04-22T01:33:48.316Z,12.20
2019-04-22T01:36:33.396Z,12.10
2019-04-22T01:39:10.779Z,12.00
2019-04-22T01:41:50.379Z,11.90
2019-04-22T01:44:27.923Z,11.80
2019-04-22T01:46:44.721Z,11.70
2019-04-22T01:49:16.053Z,11.70
2019-04-22T01:54:22.105Z,11.50
2019-04-22T01:56:47.013Z,11.50
2019-04-22T01:59:12.577Z,11.40
2019-04-22T02:01:55.097Z,11.40
2019-04-22T02:04:26.890Z,11.30
2019-04-22T02:12:02.929Z,11.40
2019-04-22T02:17:02.638Z,11.30
2019-04-22T02:19:31.124Z,11.40
2019-04-22T02:22:00.890Z,11.40
2019-04-22T02:24:37.171Z,11.50
2019-04-22T02:27:02.976Z,11.50
2019-04-22T02:29:37.325Z,11.50
2019-04-22T02:32:12.983Z,11.40
2019-04-22T02:34:40.054Z,11.40
2019-04-22T02:37:13.424Z,11.40
2019-04-22T02:39:41.132Z,11.30
2019-04-22T02:42:10.735Z,11.30
2019-04-22T02:44:42.682Z,11.20
2019-04-22T02:52:18.015Z,11.10
2019-04-22T02:54:48.464Z,11.10
2019-04-22T02:57:28.104Z,11.00
2019-04-22T02:59:46.873Z,10.90
2019-04-22T03:02:18.987Z,10.80
2019-04-22T03:04:47.282Z,10.70
2019-04-22T03:07:14.735Z,10.70
2019-04-22T03:09:50.812Z,10.70
2019-04-22T03:12:27.006Z,10.70
2019-04-22T03:17:23.755Z,10.50
2019-04-22T03:22:36.578Z,10.50
2019-04-22T03:25:23.791Z,10.50
2019-04-22T03:27:30.076Z,10.50
2019-04-22T03:35:30.939Z,10.40
2019-04-22T03:37:48.504Z,10.40
2019-04-22T03:42:52.377Z,10.40
2019-04-22T03:53:06.269Z,10.10
2019-04-22T03:55:18.090Z,10.00
2019-04-22T04:00:25.119Z,10.00
2019-04-22T04:05:33.657Z,9.80
2019-04-22T04:07:57.783Z,9.70
2019-04-22T04:10:30.009Z,9.50
2019-04-22T04:12:59.949Z,9.30
2019-04-22T04:17:54.893Z,9.20
2019-04-22T04:20:32.272Z,9.10
2019-04-22T04:23:08.374Z,9.00
2019-04-22T04:32:58.973Z,8.90
2019-04-22T04:37:56.004Z,9.00
2019-04-22T04:43:18.333Z,9.10
2019-04-22T04:48:06.040Z,9.10
2019-04-22T04:51:00.404Z,9.10
2019-04-22T05:00:51.424Z,8.90
2019-04-22T05:03:14.966Z,8.90
2019-04-22T05:05:45.636Z,8.90
2019-04-22T05:08:25.804Z,9.00
2019-04-22T05:10:56.200Z,9.00
2019-04-22T05:13:32.928Z,9.10
2019-04-22T05:16:07.225Z,9.20
2019-04-22T05:18:16.683Z,9.40
2019-04-22T05:20:59.715Z,9.40
2019-04-22T05:23:21.885Z,9.50
2019-04-22T05:25:40.932Z,9.60
2019-04-22T05:28:27.075Z,9.70
2019-04-22T05:30:43.731Z,9.80
2019-04-22T05:33:14.251Z,9.90
2019-04-22T05:35:49.302Z,10.00
2019-04-22T05:38:17.746Z,10.10
2019-04-22T05:40:48.010Z,10.20
2019-04-22T05:43:21.332Z,10.20
2019-04-22T05:45:51.168Z,10.30
2019-04-22T05:48:21.793Z,10.50
2019-04-22T05:50:59.336Z,10.60
2019-04-22T05:53:21.240Z,10.70
2019-04-22T05:55:53.895Z,10.80
2019-04-22T05:58:24.399Z,10.90
2019-04-22T06:01:29.094Z,11.00
2019-04-22T06:03:42.508Z,11.10
2019-04-22T06:06:08.956Z,11.30
2019-04-22T06:08:41.828Z,11.40
2019-04-22T06:11:16.802Z,11.60
2019-04-22T06:13:38.896Z,11.70
2019-04-22T06:16:31.334Z,11.90
2019-04-22T06:18:55.242Z,12.00
2019-04-22T06:21:24.439Z,12.10
2019-04-22T06:23:54.671Z,12.20
2019-04-22T06:31:26.705Z,12.40
2019-04-22T06:33:57.967Z,12.50
2019-04-22T06:36:25.575Z,12.60
2019-04-22T06:38:55.296Z,12.70
2019-04-22T06:41:40.247Z,12.70
2019-04-22T06:44:02.456Z,12.90
2019-04-22T06:46:29.936Z,13.00
2019-04-22T06:48:59.853Z,13.10
2019-04-22T06:51:31.075Z,13.20
2019-04-22T06:53:55.927Z,13.20
2019-04-22T06:56:31.696Z,13.40
2019-04-22T06:58:59.429Z,13.40
2019-04-22T07:01:28.681Z,13.50
2019-04-22T07:04:03.172Z,13.60
2019-04-22T07:06:42.082Z,13.80
2019-04-22T07:09:28.788Z,13.90
2019-04-22T07:11:39.176Z,14.00
2019-04-22T07:16:47.624Z,14.30
2019-04-22T07:19:13.818Z,14.40
2019-04-22T07:21:46.896Z,14.50
2019-04-22T07:24:28.182Z,14.60
2019-04-22T07:26:45.032Z,14.70
2019-04-22T07:29:12.124Z,14.80
2019-04-22T07:31:52.157Z,14.90
2019-04-22T07:34:19.689Z,15.00
2019-04-22T07:36:53.618Z,15.10
2019-04-22T07:39:15.686Z,15.20
2019-04-22T07:41:51.436Z,15.30
2019-04-22T07:44:25.846Z,15.40
2019-04-22T07:46:56.530Z,15.50
2019-04-22T07:49:26.045Z,15.60
2019-04-22T07:51:52.221Z,15.80
2019-04-22T07:54:24.860Z,15.90
2019-04-22T07:57:02.934Z,16.00
2019-04-22T07:59:30.733Z,16.10
2019-04-22T08:01:55.992Z,16.20
2019-04-22T08:09:37.419Z,16.40
2019-04-22T08:11:59.379Z,16.60
2019-04-22T08:14:36.136Z,16.60
2019-04-22T08:17:18.231Z,16.70
2019-04-22T08:19:35.921Z,16.80
2019-04-22T08:22:01.433Z,16.90
2019-04-22T08:25:01.744Z,17.00
2019-04-22T08:27:05.970Z,17.20
2019-04-22T08:30:02.139Z,17.20
2019-04-22T08:32:07.206Z,17.20
2019-04-22T08:34:40.811Z,17.30
2019-04-22T08:39:36.170Z,17.40
2019-04-22T08:42:23.436Z,17.50
2019-04-22T08:45:04.161Z,17.60
2019-04-22T08:47:19.087Z,17.60
2019-04-22T08:49:50.482Z,17.70
2019-04-22T08:52:16.536Z,17.90
2019-04-22T08:54:49.073Z,18.00
2019-04-22T08:57:20.624Z,18.10
2019-04-22T08:59:50.059Z,18.10
2019-04-22T09:02:19.896Z,18.20
2019-04-22T09:04:48.037Z,18.10
2019-04-22T09:07:28.609Z,18.30
2019-04-22T09:09:53.347Z,18.30
2019-04-22T09:12:23.981Z,18.50
2019-04-22T09:15:08.157Z,18.60
2019-04-22T09:17:28.636Z,18.60
2019-04-22T09:19:58.327Z,18.70
2019-04-22T09:22:21.834Z,18.80
2019-04-22T09:24:54.051Z,19.00
2019-04-22T09:27:36.909Z,19.00
2019-04-22T09:30:00.492Z,19.10
2019-04-22T09:32:29.215Z,19.20
2019-04-22T09:34:56.286Z,19.30
2019-04-22T09:37:34.901Z,19.40
2019-04-22T09:42:50.387Z,19.60
2019-04-22T09:45:15.163Z,19.70
2019-04-22T09:47:55.577Z,19.80
2019-04-22T09:52:54.984Z,19.90
2019-04-22T09:55:21.714Z,20.00
2019-04-22T09:57:55.785Z,20.00
2019-04-22T10:00:31.573Z,20.10
2019-04-22T10:03:13.916Z,20.10
2019-04-22T10:07:59.394Z,20.30
2019-04-22T10:10:30.297Z,20.40
2019-04-22T10:13:10.831Z,20.50
2019-04-22T10:15:36.198Z,20.50
2019-04-22T10:18:04.813Z,20.70
2019-04-22T10:20:42.935Z,20.70
2019-04-22T10:23:07.985Z,20.80
2019-04-22T10:25:36.458Z,20.90
2019-04-22T10:28:10.409Z,21.00
2019-04-22T10:30:44.573Z,21.10
2019-04-22T10:33:04.670Z,21.10
2019-04-22T10:35:19.938Z,21.20
2019-04-22T10:37:46.475Z,21.40
2019-04-22T10:40:28.069Z,21.40
2019-04-22T10:42:58.991Z,21.40
2019-04-22T10:45:28.311Z,21.40
2019-04-22T10:47:58.402Z,21.50
2019-04-22T10:50:39.346Z,21.50
2019-04-22T10:53:11.120Z,21.60
2019-04-22T10:55:43.378Z,21.60
2019-04-22T10:58:12.925Z,21.70
2019-04-22T11:00:43.097Z,21.70
2019-04-22T11:03:14.050Z,21.70
2019-04-22T11:05:44.298Z,21.70
2019-04-22T11:08:22.737Z,21.80
2019-04-22T11:10:56.449Z,21.80
2019-04-22T11:13:15.946Z,21.90
2019-04-22T11:15:46.719Z,21.90
2019-04-22T11:18:17.796Z,21.90
2019-04-22T11:20:47.418Z,21.90
2019-04-22T11:23:16.747Z,21.90
2019-04-22T11:25:46.165Z,22.10
2019-04-22T11:28:16.015Z,22.10
2019-04-22T11:30:45.323Z,22.00
2019-04-22T11:33:14.511Z,21.90
2019-04-22T11:35:43.855Z,21.90
2019-04-22T11:38:13.175Z,22.10
2019-04-22T11:40:45.981Z,22.20
2019-04-22T11:43:14.368Z,22.40
2019-04-22T11:45:45.121Z,22.60
2019-04-22T11:48:15.490Z,22.70
2019-04-22T11:50:46.065Z,22.80
2019-04-22T11:53:16.574Z,22.80
2019-04-22T11:55:46.790Z,22.90
2019-04-22T11:58:17.047Z,23.10
2019-04-22T12:00:46.539Z,23.20
2019-04-22T12:03:16.865Z,23.20
2019-04-22T12:05:47.919Z,23.40
2019-04-22T12:08:17.383Z,23.40
2019-04-22T12:10:51.695Z,23.50
2019-04-22T12:13:17.876Z,23.50
2019-04-22T12:15:47.110Z,23.70
2019-04-22T12:18:17.292Z,23.70
2019-04-22T12:20:47.455Z,23.80
2019-04-22T12:23:17.018Z,23.90
2019-04-22T12:25:54.456Z,24.00
2019-04-22T12:28:17.444Z,24.00
2019-04-22T12:30:47.772Z,24.10
2019-04-22T12:33:17.106Z,24.20
2019-04-22T12:35:46.464Z,24.20
2019-04-22T12:38:16.976Z,24.30
2019-04-22T12:40:54.389Z,24.30
2019-04-22T12:43:20.241Z,24.30
2019-04-22T12:45:49.913Z,24.40
2019-04-22T12:48:19.202Z,24.30
2019-04-22T12:50:50.586Z,24.20
2019-04-22T12:53:22.579Z,24.10
2019-04-22T12:55:50.325Z,24.00
2019-04-22T12:58:20.016Z,24.10
2019-04-22T13:00:52.333Z,24.30
2019-04-22T13:03:20.449Z,24.40
2019-04-22T13:05:51.354Z,24.50
2019-04-22T13:08:20.532Z,24.50
2019-04-22T13:10:58.722Z,24.60
2019-04-22T13:13:20.748Z,24.60
2019-04-22T13:15:51.036Z,24.60
2019-04-22T13:18:29.349Z,24.50
2019-04-22T13:20:52.643Z,24.30
2019-04-22T13:23:22.184Z,24.20
2019-04-22T13:25:52.676Z,24.10
2019-04-22T13:28:23.057Z,24.00
2019-04-22T13:30:52.713Z,23.90
2019-04-22T13:33:23.169Z,23.80
2019-04-22T13:35:54.232Z,23.70
2019-04-22T13:38:24.854Z,23.70
2019-04-22T13:41:07.045Z,23.60
2019-04-22T13:43:25.045Z,23.60
2019-04-22T13:45:54.169Z,23.50
2019-04-22T13:48:40.095Z,23.50
2019-04-22T13:51:32.433Z,23.50
2019-04-22T13:54:19.013Z,23.50
2019-04-22T13:56:15.444Z,23.40
2019-04-22T13:58:42.770Z,23.30
2019-04-22T14:01:00.718Z,23.30
2019-04-22T14:03:52.226Z,23.20
2019-04-22T14:06:22.646Z,23.20
2019-04-22T14:08:53.304Z,23.10
2019-04-22T14:11:32.356Z,23.20
2019-04-22T14:13:54.444Z,23.30
2019-04-22T14:16:24.797Z,23.30
2019-04-22T14:18:54.106Z,23.40
2019-04-22T14:21:23.228Z,23.40
2019-04-22T14:23:53.003Z,23.40
2019-04-22T14:26:23.001Z,23.40
2019-04-22T14:28:53.452Z,23.40
2019-04-22T14:31:22.708Z,23.40
2019-04-22T14:33:56.964Z,23.40
2019-04-22T14:36:23.418Z,23.30
2019-04-22T14:38:52.598Z,23.30
2019-04-22T14:41:40.627Z,23.40
2019-04-22T14:46:51.972Z,23.40
2019-04-22T14:49:22.411Z,23.40
2019-04-22T14:51:44.159Z,23.40
2019-04-22T14:54:13.948Z,23.40
2019-04-22T14:56:26.770Z,23.40
2019-04-22T14:58:58.838Z,23.30
2019-04-22T15:01:28.764Z,23.40
2019-04-22T15:03:58.827Z,23.40
2019-04-22T15:06:28.527Z,23.50
2019-04-22T15:08:59.525Z,23.50
2019-04-22T15:11:28.971Z,23.50
2019-04-22T15:13:59.359Z,23.50
2019-04-22T15:16:48.781Z,23.50
2019-04-22T15:19:25.644Z,23.40
2019-04-22T15:22:04.924Z,23.30
2019-04-22T15:24:34.615Z,23.20
2019-04-22T15:27:04.729Z,23.20
2019-04-22T15:29:35.466Z,23.10
2019-04-22T15:32:05.267Z,23.10
2019-04-22T15:34:34.690Z,23.20
2019-04-22T15:37:04.327Z,23.10
2019-04-22T15:39:33.986Z,23.10
2019-04-22T15:42:11.817Z,23.10
2019-04-22T15:44:35.864Z,23.00
2019-04-22T15:47:05.139Z,23.10
2019-04-22T15:49:34.210Z,23.10
2019-04-22T15:52:05.723Z,23.00
2019-04-22T15:54:34.172Z,23.00
2019-04-22T15:57:04.727Z,22.90
2019-04-22T15:59:49.351Z,22.90
2019-04-22T16:02:06.606Z,22.90
2019-04-22T16:04:36.706Z,22.80
2019-04-22T16:07:07.389Z,22.80
2019-04-22T16:09:36.815Z,22.80
2019-04-22T16:12:18.610Z,22.80
2019-04-22T16:14:41.990Z,22.80
2019-04-22T16:17:08.632Z,22.80
2019-04-22T16:19:39.080Z,22.80
2019-04-22T16:22:15.193Z,22.80
2019-04-22T16:24:58.279Z,22.80
2019-04-22T16:27:28.289Z,22.90
2019-04-22T16:29:57.413Z,22.90
2019-04-22T16:32:27.741Z,22.80
2019-04-22T16:34:57.038Z,22.80
2019-04-22T16:37:26.095Z,22.80
2019-04-22T16:39:56.540Z,22.80
2019-04-22T16:42:35.921Z,22.70
2019-04-22T16:44:57.665Z,22.70
2019-04-22T16:47:27.911Z,22.70
2019-04-22T16:49:57.408Z,22.60
2019-04-22T16:52:27.961Z,22.60
2019-04-22T16:54:58.950Z,22.50
2019-04-22T16:57:28.231Z,22.50
2019-04-22T16:59:58.494Z,22.50
2019-04-22T17:02:50.657Z,22.50
2019-04-22T17:05:43.534Z,22.50
2019-04-22T17:08:14.172Z,22.40
2019-04-22T17:10:43.882Z,22.40
2019-04-22T17:13:19.223Z,22.40
2019-04-22T17:15:45.116Z,22.40
2019-04-22T17:18:15.113Z,22.50
2019-04-22T17:20:44.722Z,22.60
2019-04-22T17:23:14.026Z,22.60
2019-04-22T17:25:44.537Z,22.70
2019-04-22T17:28:13.700Z,22.60
2019-04-22T17:30:43.784Z,22.60
2019-04-22T17:33:12.988Z,22.70
2019-04-22T17:35:45.360Z,22.60
2019-04-22T17:38:23.776Z,22.50
2019-04-22T17:41:05.061Z,22.40
2019-04-22T17:43:49.219Z,22.30
2019-04-22T17:46:15.063Z,22.20
2019-04-22T17:48:53.499Z,22.10
2019-04-22T17:51:32.494Z,21.90
2019-04-22T17:53:57.948Z,21.70
2019-04-22T17:56:28.256Z,21.60
2019-04-22T17:58:57.082Z,21.60
2019-04-22T18:01:29.643Z,21.50
2019-04-22T18:03:48.935Z,21.40
2019-04-22T18:06:39.147Z,21.20
2019-04-22T18:09:01.764Z,21.00
2019-04-22T18:11:43.040Z,20.70
2019-04-22T18:14:25.981Z,20.40
2019-04-22T18:16:40.376Z,20.20
2019-04-22T18:19:12.104Z,20.00
2019-04-22T18:21:37.759Z,19.80
2019-04-22T18:23:56.468Z,19.60
2019-04-22T18:26:38.961Z,19.40
2019-04-22T18:29:11.652Z,19.20
2019-04-22T18:31:31.645Z,19.00
2019-04-22T18:34:06.882Z,18.80
2019-04-22T18:36:37.286Z,18.70
2019-04-22T18:39:20.644Z,18.50
2019-04-22T18:41:43.992Z,18.40
2019-04-22T18:44:19.856Z,18.30
2019-04-22T18:46:50.914Z,18.20
2019-04-22T18:49:17.241Z,18.10
2019-04-22T18:52:04.578Z,17.90
2019-04-22T18:54:55.287Z,17.90
2019-04-22T18:57:22.628Z,17.70
2019-04-22T18:59:41.116Z,17.60
2019-04-22T19:02:14.248Z,17.50
2019-04-22T19:04:52.013Z,17.40
2019-04-22T19:07:38.426Z,17.20
2019-04-22T19:10:11.895Z,17.10
2019-04-22T19:12:44.202Z,17.00
2019-04-22T19:15:08.239Z,16.90
2019-04-22T19:17:39.148Z,16.90
2019-04-22T19:20:08.264Z,16.80
2019-04-22T19:22:36.682Z,16.70
2019-04-22T19:25:00.085Z,16.60
2019-04-22T19:27:35.629Z,16.50
2019-04-22T19:30:14.403Z,16.40
2019-04-22T19:32:40.134Z,16.40
2019-04-22T19:35:11.575Z,16.40
2019-04-22T19:37:37.839Z,16.40
2019-04-22T19:40:20.574Z,16.40
2019-04-22T19:42:51.828Z,16.40
2019-04-22T19:45:10.687Z,16.40
2019-04-22T19:47:50.102Z,16.30
2019-04-22T19:50:19.272Z,16.30
2019-04-22T19:52:44.681Z,16.30
2019-04-22T19:55:16.885Z,16.30
2019-04-22T19:57:44.232Z,16.30
2019-04-22T20:00:23.951Z,16.20
2019-04-22T20:03:17.568Z,16.20
2019-04-22T20:06:01.064Z,16.30
2019-04-22T20:08:30.237Z,16.40
2019-04-22T20:11:06.911Z,16.40
2019-04-22T20:13:36.538Z,16.50
2019-04-22T20:15:56.129Z,16.50
2019-04-22T20:18:50.237Z,16.60
2019-04-22T20:21:18.350Z,16.60
2019-04-22T20:23:37.054Z,16.50
2019-04-22T20:26:11.648Z,16.40
2019-04-22T20:28:51.241Z,16.30
2019-04-22T20:31:22.535Z,16.30
2019-04-22T20:33:53.762Z,16.20
2019-04-22T20:36:37.797Z,16.20
2019-04-22T20:38:45.295Z,16.20
2019-04-22T20:41:16.969Z,16.10
2019-04-22T20:43:52.559Z,16.10
2019-04-22T20:46:20.562Z,16.00
2019-04-22T20:48:55.650Z,16.00
2019-04-22T20:51:28.189Z,16.00
2019-04-22T20:53:56.574Z,16.10
2019-04-22T20:56:26.802Z,16.10
2019-04-22T20:58:57.184Z,16.10
2019-04-22T21:01:28.320Z,16.20
2019-04-22T21:03:45.680Z,16.20
2019-04-22T21:06:30.569Z,16.30
2019-04-22T21:09:00.550Z,16.30
2019-04-22T21:11:29.687Z,16.40
2019-04-22T21:14:01.405Z,16.30
2019-04-22T21:16:34.651Z,16.40
2019-04-22T21:19:02.749Z,16.50
2019-04-22T21:21:38.752Z,16.50
2019-04-22T21:23:58.382Z,16.60
2019-04-22T21:26:37.352Z,16.60
2019-04-22T21:29:05.476Z,16.50
2019-04-22T21:31:38.939Z,16.50
2019-04-22T21:34:08.028Z,16.60
2019-04-22T21:36:42.677Z,16.70
2019-04-22T21:39:08.228Z,16.60
2019-04-22T21:41:43.226Z,16.60
2019-04-22T21:44:12.754Z,16.50
2019-04-22T21:46:42.635Z,16.60
2019-04-22T21:49:18.959Z,16.50
2019-04-22T21:51:49.641Z,16.50
2019-04-22T21:54:22.414Z,16.50
2019-04-22T21:57:13.999Z,16.50
2019-04-22T21:59:34.261Z,16.50
2019-04-22T22:02:09.826Z,16.50
2019-04-22T22:04:39.762Z,16.50
2019-04-22T22:07:01.140Z,16.50
2019-04-22T22:09:44.126Z,16.40
2019-04-22T22:12:10.320Z,16.40
2019-04-22T22:14:48.942Z,16.50
2019-04-22T22:17:20.582Z,16.40
2019-04-22T22:19:45.559Z,16.40
2019-04-22T22:22:35.284Z,16.40
2019-04-22T22:24:49.884Z,16.40
2019-04-22T22:27:19.041Z,16.40
2019-04-22T22:30:05.648Z,16.40
2019-04-22T22:32:25.995Z,16.40
2019-04-22T22:35:16.782Z,16.30
2019-04-22T22:37:43.961Z,16.40
2019-04-22T22:40:00.982Z,16.40
2019-04-22T22:42:33.640Z,16.30
2019-04-22T22:45:07.904Z,16.30
2019-04-22T22:47:44.157Z,16.30
2019-04-22T22:50:17.149Z,16.30
2019-04-22T22:55:18.038Z,16.20
2019-04-22T22:57:49.861Z,16.10
2019-04-22T23:00:19.421Z,16.10
2019-04-22T23:03:13.700Z,16.00
2019-04-22T23:05:25.509Z,16.00
2019-04-22T23:08:05.962Z,16.00
2019-04-22T23:10:24.811Z,16.00
2019-04-22T23:13:01.501Z,15.90
2019-04-22T23:15:24.986Z,15.90
2019-04-22T23:17:39.299Z,15.90
2019-04-22T23:20:09.650Z,15.90
2019-04-22T23:23:06.124Z,15.80
2019-04-22T23:25:32.822Z,15.80
2019-04-22T23:28:20.844Z,15.70
2019-04-22T23:30:57.144Z,15.60
2019-04-22T23:33:42.768Z,15.60
2019-04-22T23:36:30.551Z,15.50
2019-04-22T23:39:12.165Z,15.50
2019-04-22T23:41:59.308Z,15.40
2019-04-22T23:44:13.510Z,15.40
2019-04-22T23:46:48.888Z,15.40
2019-04-22T23:49:18.071Z,15.30
2019-04-22T23:52:02.729Z,15.30
2019-04-22T23:54:27.193Z,15.30
2019-04-22T23:56:52.517Z,15.30
2019-04-22T23:59:42.759Z,15.20
